sensor_id;sensor_type;location;lat;lon;timestamp;P1;durP1;ratioP1;P2;durP2;ratioP2
92;SDS011;16232;48.800;9.002;2023-07-22T00:01:59;3.80;;;3.03;;
92;SDS011;16232;48.800;9.002;2023-07-22T00:04:26;3.43;;;3.13;;
92;SDS011;16232;48.800;9.002;2023-07-22T00:06:54;3.60;;;3.30;;
92;SDS011;16232;48.800;9.002;2023-07-22T00:09:21;4.20;;;3.17;;
92;SDS011;16232;48.800;9.002;2023-07-22T00:11:49;4.10;;;3.03;;
92;SDS011;16232;48.800;9.002;2023-07-22T00:14:16;4.13;;;3.73;;
92;SDS011;16232;48.800;9.002;2023-07-22T00:16:45;4.33;;;3.10;;
92;SDS011;16232;48.800;9.002;2023-07-22T00:19:13;4.47;;;3.43;;
92;SDS011;16232;48.800;9.002;2023-07-22T00:21:40;4.33;;;3.30;;
92;SDS011;16232;48.800;9.002;2023-07-22T00:24:07;4.00;;;3.30;;
92;SDS011;16232;48.800;9.002;2023-07-22T00:26:35;3.90;;;3.50;;
92;SDS011;16232;48.800;9.002;2023-07-22T00:29:03;5.80;;;3.60;;
92;SDS011;16232;48.800;9.002;2023-07-22T00:31:31;4.17;;;3.67;;
92;SDS011;16232;48.800;9.002;2023-07-22T00:34:00;4.77;;;3.60;;
92;SDS011;16232;48.800;9.002;2023-07-22T00:36:27;3.67;;;3.37;;
92;SDS011;16232;48.800;9.002;2023-07-22T00:38:55;3.40;;;3.10;;
92;SDS011;16232;48.800;9.002;2023-07-22T00:41:22;4.50;;;3.60;;
92;SDS011;16232;48.800;9.002;2023-07-22T00:43:49;3.93;;;3.20;;
92;SDS011;16232;48.800;9.002;2023-07-22T00:46:17;4.87;;;3.57;;
92;SDS011;16232;48.800;9.002;2023-07-22T00:48:44;4.50;;;3.67;;
92;SDS011;16232;48.800;9.002;2023-07-22T00:51:13;5.47;;;3.67;;
92;SDS011;16232;48.800;9.002;2023-07-22T00:53:40;4.40;;;2.90;;
92;SDS011;16232;48.800;9.002;2023-07-22T00:56:08;4.10;;;3.27;;
92;SDS011;16232;48.800;9.002;2023-07-22T00:58:35;3.73;;;3.27;;
92;SDS011;16232;48.800;9.002;2023-07-22T01:01:02;5.00;;;3.50;;
92;SDS011;16232;48.800;9.002;2023-07-22T01:03:30;4.80;;;2.97;;
92;SDS011;16232;48.800;9.002;2023-07-22T01:05:57;4.07;;;3.50;;
92;SDS011;16232;48.800;9.002;2023-07-22T01:08:27;4.47;;;3.67;;
92;SDS011;16232;48.800;9.002;2023-07-22T01:10:54;4.63;;;3.47;;
92;SDS011;16232;48.800;9.002;2023-07-22T01:13:21;4.30;;;3.90;;
92;SDS011;16232;48.800;9.002;2023-07-22T01:15:49;3.60;;;3.13;;
92;SDS011;16232;48.800;9.002;2023-07-22T01:18:16;3.73;;;3.43;;
92;SDS011;16232;48.800;9.002;2023-07-22T01:20:43;7.57;;;3.60;;
92;SDS011;16232;48.800;9.002;2023-07-22T01:23:13;6.57;;;3.63;;
92;SDS011;16232;48.800;9.002;2023-07-22T01:25:40;4.87;;;3.83;;
92;SDS011;16232;48.800;9.002;2023-07-22T01:28:08;5.53;;;3.93;;
92;SDS011;16232;48.800;9.002;2023-07-22T01:30:36;5.43;;;3.60;;
92;SDS011;16232;48.800;9.002;2023-07-22T01:33:05;5.60;;;3.47;;
92;SDS011;16232;48.800;9.002;2023-07-22T01:35:32;6.03;;;3.83;;
92;SDS011;16232;48.800;9.002;2023-07-22T01:37:59;4.73;;;4.23;;
92;SDS011;16232;48.800;9.002;2023-07-22T01:40:28;4.70;;;3.13;;
92;SDS011;16232;48.800;9.002;2023-07-22T01:42:56;6.30;;;3.63;;
92;SDS011;16232;48.800;9.002;2023-07-22T01:45:23;4.13;;;3.30;;
92;SDS011;16232;48.800;9.002;2023-07-22T01:47:51;5.17;;;3.50;;
92;SDS011;16232;48.800;9.002;2023-07-22T01:50:19;4.13;;;3.37;;
92;SDS011;16232;48.800;9.002;2023-07-22T01:52:46;5.33;;;4.30;;
92;SDS011;16232;48.800;9.002;2023-07-22T01:55:13;4.83;;;4.00;;
92;SDS011;16232;48.800;9.002;2023-07-22T01:57:42;4.60;;;3.83;;
92;SDS011;16232;48.800;9.002;2023-07-22T02:00:09;4.73;;;3.77;;
92;SDS011;16232;48.800;9.002;2023-07-22T02:02:37;4.27;;;3.60;;
92;SDS011;16232;48.800;9.002;2023-07-22T02:05:05;5.67;;;3.40;;
92;SDS011;16232;48.800;9.002;2023-07-22T02:07:32;5.37;;;3.73;;
92;SDS011;16232;48.800;9.002;2023-07-22T02:10:00;6.40;;;3.87;;
92;SDS011;16232;48.800;9.002;2023-07-22T02:12:28;3.83;;;3.40;;
92;SDS011;16232;48.800;9.002;2023-07-22T02:14:57;4.33;;;3.73;;
92;SDS011;16232;48.800;9.002;2023-07-22T02:17:24;6.70;;;4.20;;
92;SDS011;16232;48.800;9.002;2023-07-22T02:19:51;5.90;;;3.80;;
92;SDS011;16232;48.800;9.002;2023-07-22T02:22:19;6.33;;;4.50;;
92;SDS011;16232;48.800;9.002;2023-07-22T02:24:46;6.13;;;3.47;;
92;SDS011;16232;48.800;9.002;2023-07-22T02:27:13;5.30;;;4.53;;
92;SDS011;16232;48.800;9.002;2023-07-22T02:29:41;6.37;;;4.90;;
92;SDS011;16232;48.800;9.002;2023-07-22T02:32:10;5.67;;;4.93;;
92;SDS011;16232;48.800;9.002;2023-07-22T02:34:37;7.37;;;4.10;;
92;SDS011;16232;48.800;9.002;2023-07-22T02:37:05;5.23;;;4.30;;
92;SDS011;16232;48.800;9.002;2023-07-22T02:39:32;5.47;;;4.37;;
92;SDS011;16232;48.800;9.002;2023-07-22T02:42:00;5.73;;;4.33;;
92;SDS011;16232;48.800;9.002;2023-07-22T02:44:27;5.23;;;4.73;;
92;SDS011;16232;48.800;9.002;2023-07-22T02:46:54;6.33;;;4.47;;
92;SDS011;16232;48.800;9.002;2023-07-22T02:49:23;4.97;;;4.37;;
92;SDS011;16232;48.800;9.002;2023-07-22T02:51:50;6.90;;;4.77;;
92;SDS011;16232;48.800;9.002;2023-07-22T02:54:17;4.13;;;3.57;;
92;SDS011;16232;48.800;9.002;2023-07-22T02:56:45;4.47;;;4.03;;
92;SDS011;16232;48.800;9.002;2023-07-22T02:59:12;5.57;;;4.67;;
92;SDS011;16232;48.800;9.002;2023-07-22T03:01:39;6.13;;;4.07;;
92;SDS011;16232;48.800;9.002;2023-07-22T03:04:07;5.57;;;4.63;;
92;SDS011;16232;48.800;9.002;2023-07-22T03:06:36;5.43;;;3.90;;
92;SDS011;16232;48.800;9.002;2023-07-22T03:09:03;3.77;;;3.37;;
92;SDS011;16232;48.800;9.002;2023-07-22T03:11:32;5.17;;;4.00;;
92;SDS011;16232;48.800;9.002;2023-07-22T03:13:59;5.47;;;3.87;;
92;SDS011;16232;48.800;9.002;2023-07-22T03:16:27;4.43;;;4.00;;
92;SDS011;16232;48.800;9.002;2023-07-22T03:18:54;4.23;;;3.83;;
92;SDS011;16232;48.800;9.002;2023-07-22T03:21:22;4.83;;;3.73;;
92;SDS011;16232;48.800;9.002;2023-07-22T03:23:50;5.63;;;4.13;;
92;SDS011;16232;48.800;9.002;2023-07-22T03:26:18;4.00;;;3.60;;
92;SDS011;16232;48.800;9.002;2023-07-22T03:28:45;4.20;;;3.80;;
92;SDS011;16232;48.800;9.002;2023-07-22T03:31:13;4.30;;;3.80;;
92;SDS011;16232;48.800;9.002;2023-07-22T03:33:40;5.87;;;4.10;;
92;SDS011;16232;48.800;9.002;2023-07-22T03:36:11;4.90;;;4.50;;
92;SDS011;16232;48.800;9.002;2023-07-22T03:38:39;4.93;;;4.27;;
92;SDS011;16232;48.800;9.002;2023-07-22T03:41:07;4.57;;;4.17;;
92;SDS011;16232;48.800;9.002;2023-07-22T03:43:35;5.93;;;4.57;;
92;SDS011;16232;48.800;9.002;2023-07-22T03:46:02;5.50;;;4.43;;
92;SDS011;16232;48.800;9.002;2023-07-22T03:48:29;4.93;;;4.43;;
92;SDS011;16232;48.800;9.002;2023-07-22T03:50:57;5.40;;;4.00;;
92;SDS011;16232;48.800;9.002;2023-07-22T03:53:24;4.90;;;4.33;;
92;SDS011;16232;48.800;9.002;2023-07-22T03:55:51;5.13;;;3.53;;
92;SDS011;16232;48.800;9.002;2023-07-22T03:58:20;4.60;;;4.00;;
92;SDS011;16232;48.800;9.002;2023-07-22T04:00:48;5.03;;;3.87;;
92;SDS011;16232;48.800;9.002;2023-07-22T04:03:15;5.40;;;4.13;;
92;SDS011;16232;48.800;9.002;2023-07-22T04:05:42;6.53;;;4.53;;
92;SDS011;16232;48.800;9.002;2023-07-22T04:08:09;4.70;;;4.13;;
92;SDS011;16232;48.800;9.002;2023-07-22T04:10:37;4.63;;;4.13;;
92;SDS011;16232;48.800;9.002;2023-07-22T04:13:04;5.43;;;4.43;;
92;SDS011;16232;48.800;9.002;2023-07-22T04:15:33;5.03;;;4.17;;
92;SDS011;16232;48.800;9.002;2023-07-22T04:18:00;5.07;;;3.93;;
92;SDS011;16232;48.800;9.002;2023-07-22T04:20:27;4.23;;;3.87;;
92;SDS011;16232;48.800;9.002;2023-07-22T04:22:55;5.10;;;4.43;;
92;SDS011;16232;48.800;9.002;2023-07-22T04:25:22;4.27;;;3.83;;
92;SDS011;16232;48.800;9.002;2023-07-22T04:27:49;5.93;;;4.60;;
92;SDS011;16232;48.800;9.002;2023-07-22T04:30:17;5.87;;;5.00;;
92;SDS011;16232;48.800;9.002;2023-07-22T04:32:48;4.13;;;3.73;;
92;SDS011;16232;48.800;9.002;2023-07-22T04:35:15;5.33;;;4.00;;
92;SDS011;16232;48.800;9.002;2023-07-22T04:37:43;5.03;;;3.80;;
92;SDS011;16232;48.800;9.002;2023-07-22T04:40:10;4.60;;;4.10;;
92;SDS011;16232;48.800;9.002;2023-07-22T04:42:41;8.63;;;5.17;;
92;SDS011;16232;48.800;9.002;2023-07-22T04:45:08;4.10;;;3.20;;
92;SDS011;16232;48.800;9.002;2023-07-22T04:47:36;4.90;;;3.87;;
92;SDS011;16232;48.800;9.002;2023-07-22T04:50:06;6.37;;;4.07;;
92;SDS011;16232;48.800;9.002;2023-07-22T04:52:34;6.03;;;4.00;;
92;SDS011;16232;48.800;9.002;2023-07-22T04:55:01;3.97;;;3.30;;
92;SDS011;16232;48.800;9.002;2023-07-22T04:57:33;3.80;;;3.50;;
92;SDS011;16232;48.800;9.002;2023-07-22T05:00:01;4.57;;;3.23;;
92;SDS011;16232;48.800;9.002;2023-07-22T05:02:29;5.37;;;3.63;;
92;SDS011;16232;48.800;9.002;2023-07-22T05:04:57;4.67;;;3.53;;
92;SDS011;16232;48.800;9.002;2023-07-22T05:07:25;4.13;;;3.73;;
92;SDS011;16232;48.800;9.002;2023-07-22T05:09:53;5.27;;;3.83;;
92;SDS011;16232;48.800;9.002;2023-07-22T05:12:20;4.83;;;3.67;;
92;SDS011;16232;48.800;9.002;2023-07-22T05:14:48;3.90;;;3.43;;
92;SDS011;16232;48.800;9.002;2023-07-22T05:17:15;4.13;;;3.73;;
92;SDS011;16232;48.800;9.002;2023-07-22T05:19:43;3.60;;;3.23;;
92;SDS011;16232;48.800;9.002;2023-07-22T05:22:10;4.83;;;3.43;;
92;SDS011;16232;48.800;9.002;2023-07-22T05:24:38;3.67;;;3.37;;
92;SDS011;16232;48.800;9.002;2023-07-22T05:27:06;4.33;;;2.77;;
92;SDS011;16232;48.800;9.002;2023-07-22T05:29:33;5.83;;;3.03;;
92;SDS011;16232;48.800;9.002;2023-07-22T05:32:00;3.43;;;2.43;;
92;SDS011;16232;48.800;9.002;2023-07-22T05:34:28;3.20;;;2.70;;
92;SDS011;16232;48.800;9.002;2023-07-22T05:36:55;4.77;;;3.10;;
92;SDS011;16232;48.800;9.002;2023-07-22T05:39:22;3.23;;;2.60;;
92;SDS011;16232;48.800;9.002;2023-07-22T05:41:51;3.10;;;2.53;;
92;SDS011;16232;48.800;9.002;2023-07-22T05:44:19;4.70;;;2.97;;
92;SDS011;16232;48.800;9.002;2023-07-22T05:46:46;2.70;;;2.43;;
92;SDS011;16232;48.800;9.002;2023-07-22T05:49:13;3.37;;;2.73;;
92;SDS011;16232;48.800;9.002;2023-07-22T05:51:40;2.20;;;2.00;;
92;SDS011;16232;48.800;9.002;2023-07-22T05:54:08;4.77;;;2.73;;
92;SDS011;16232;48.800;9.002;2023-07-22T05:56:35;2.27;;;2.00;;
92;SDS011;16232;48.800;9.002;2023-07-22T05:59:04;4.37;;;2.20;;
92;SDS011;16232;48.800;9.002;2023-07-22T06:01:31;2.40;;;2.03;;
92;SDS011;16232;48.800;9.002;2023-07-22T06:03:58;3.37;;;2.20;;
92;SDS011;16232;48.800;9.002;2023-07-22T06:06:27;2.17;;;1.87;;
92;SDS011;16232;48.800;9.002;2023-07-22T06:08:54;2.83;;;2.33;;
92;SDS011;16232;48.800;9.002;2023-07-22T06:11:23;2.53;;;2.10;;
92;SDS011;16232;48.800;9.002;2023-07-22T06:13:50;3.87;;;2.43;;
92;SDS011;16232;48.800;9.002;2023-07-22T06:16:19;2.60;;;1.97;;
92;SDS011;16232;48.800;9.002;2023-07-22T06:18:47;2.20;;;2.00;;
92;SDS011;16232;48.800;9.002;2023-07-22T06:21:14;3.03;;;2.10;;
92;SDS011;16232;48.800;9.002;2023-07-22T06:23:41;3.37;;;2.37;;
92;SDS011;16232;48.800;9.002;2023-07-22T06:26:09;4.87;;;2.33;;
92;SDS011;16232;48.800;9.002;2023-07-22T06:28:36;3.07;;;2.37;;
92;SDS011;16232;48.800;9.002;2023-07-22T06:31:03;4.00;;;2.27;;
92;SDS011;16232;48.800;9.002;2023-07-22T06:33:32;4.83;;;2.60;;
92;SDS011;16232;48.800;9.002;2023-07-22T06:35:59;1.90;;;1.60;;
92;SDS011;16232;48.800;9.002;2023-07-22T06:38:27;2.10;;;1.90;;
92;SDS011;16232;48.800;9.002;2023-07-22T06:40:54;2.23;;;1.87;;
92;SDS011;16232;48.800;9.002;2023-07-22T06:43:22;3.00;;;1.90;;
92;SDS011;16232;48.800;9.002;2023-07-22T06:45:49;2.13;;;1.57;;
92;SDS011;16232;48.800;9.002;2023-07-22T06:48:17;2.50;;;2.03;;
92;SDS011;16232;48.800;9.002;2023-07-22T06:50:48;1.83;;;1.63;;
92;SDS011;16232;48.800;9.002;2023-07-22T06:53:15;2.33;;;2.10;;
92;SDS011;16232;48.800;9.002;2023-07-22T06:55:48;1.63;;;1.47;;
92;SDS011;16232;48.800;9.002;2023-07-22T06:58:16;2.00;;;1.60;;
92;SDS011;16232;48.800;9.002;2023-07-22T07:00:43;3.37;;;1.80;;
92;SDS011;16232;48.800;9.002;2023-07-22T07:03:10;3.37;;;1.77;;
92;SDS011;16232;48.800;9.002;2023-07-22T07:05:38;3.13;;;1.87;;
92;SDS011;16232;48.800;9.002;2023-07-22T07:08:08;4.70;;;1.70;;
92;SDS011;16232;48.800;9.002;2023-07-22T07:10:37;2.60;;;1.70;;
92;SDS011;16232;48.800;9.002;2023-07-22T07:13:05;3.43;;;1.80;;
92;SDS011;16232;48.800;9.002;2023-07-22T07:15:32;2.63;;;1.73;;
92;SDS011;16232;48.800;9.002;2023-07-22T07:17:59;1.97;;;1.70;;
92;SDS011;16232;48.800;9.002;2023-07-22T07:20:27;2.37;;;1.57;;
92;SDS011;16232;48.800;9.002;2023-07-22T07:22:54;2.43;;;1.70;;
92;SDS011;16232;48.800;9.002;2023-07-22T07:25:23;3.03;;;1.77;;
92;SDS011;16232;48.800;9.002;2023-07-22T07:27:50;1.60;;;1.50;;
92;SDS011;16232;48.800;9.002;2023-07-22T07:30:18;2.10;;;1.90;;
92;SDS011;16232;48.800;9.002;2023-07-22T07:32:45;1.60;;;1.50;;
92;SDS011;16232;48.800;9.002;2023-07-22T07:35:12;2.47;;;1.70;;
92;SDS011;16232;48.800;9.002;2023-07-22T07:37:40;2.53;;;1.50;;
92;SDS011;16232;48.800;9.002;2023-07-22T07:40:07;2.83;;;1.73;;
92;SDS011;16232;48.800;9.002;2023-07-22T07:42:36;2.57;;;1.50;;
92;SDS011;16232;48.800;9.002;2023-07-22T07:45:04;2.37;;;1.30;;
92;SDS011;16232;48.800;9.002;2023-07-22T07:47:32;1.53;;;1.30;;
92;SDS011;16232;48.800;9.002;2023-07-22T07:49:59;2.80;;;1.50;;
92;SDS011;16232;48.800;9.002;2023-07-22T07:52:28;1.93;;;1.73;;
92;SDS011;16232;48.800;9.002;2023-07-22T07:54:55;2.03;;;1.60;;
92;SDS011;16232;48.800;9.002;2023-07-22T07:57:23;2.47;;;1.57;;
92;SDS011;16232;48.800;9.002;2023-07-22T07:59:51;1.73;;;1.43;;
92;SDS011;16232;48.800;9.002;2023-07-22T08:02:19;1.30;;;1.20;;
92;SDS011;16232;48.800;9.002;2023-07-22T08:04:46;2.90;;;1.40;;
92;SDS011;16232;48.800;9.002;2023-07-22T08:07:15;1.30;;;1.20;;
92;SDS011;16232;48.800;9.002;2023-07-22T08:09:42;1.30;;;1.20;;
92;SDS011;16232;48.800;9.002;2023-07-22T08:12:13;0.97;;;0.87;;
92;SDS011;16232;48.800;9.002;2023-07-22T08:14:40;1.33;;;1.20;;
92;SDS011;16232;48.800;9.002;2023-07-22T08:17:09;2.70;;;1.30;;
92;SDS011;16232;48.800;9.002;2023-07-22T08:19:36;1.53;;;1.30;;
92;SDS011;16232;48.800;9.002;2023-07-22T08:22:04;1.27;;;1.17;;
92;SDS011;16232;48.800;9.002;2023-07-22T08:24:32;1.93;;;1.23;;
92;SDS011;16232;48.800;9.002;2023-07-22T08:26:59;2.80;;;1.33;;
92;SDS011;16232;48.800;9.002;2023-07-22T08:29:26;1.53;;;1.03;;
92;SDS011;16232;48.800;9.002;2023-07-22T08:31:54;1.20;;;1.10;;
92;SDS011;16232;48.800;9.002;2023-07-22T08:34:22;1.37;;;0.90;;
92;SDS011;16232;48.800;9.002;2023-07-22T08:36:50;1.83;;;1.20;;
92;SDS011;16232;48.800;9.002;2023-07-22T08:39:17;2.57;;;1.10;;
92;SDS011;16232;48.800;9.002;2023-07-22T08:41:47;1.47;;;1.07;;
92;SDS011;16232;48.800;9.002;2023-07-22T08:44:16;1.30;;;1.10;;
92;SDS011;16232;48.800;9.002;2023-07-22T08:46:46;1.53;;;1.20;;
92;SDS011;16232;48.800;9.002;2023-07-22T08:49:13;1.67;;;1.20;;
92;SDS011;16232;48.800;9.002;2023-07-22T08:51:43;1.23;;;1.13;;
92;SDS011;16232;48.800;9.002;2023-07-22T08:54:11;1.47;;;1.30;;
92;SDS011;16232;48.800;9.002;2023-07-22T08:56:39;3.73;;;1.10;;
92;SDS011;16232;48.800;9.002;2023-07-22T08:59:06;1.67;;;1.33;;
92;SDS011;16232;48.800;9.002;2023-07-22T09:01:34;1.63;;;1.10;;
92;SDS011;16232;48.800;9.002;2023-07-22T09:04:02;2.17;;;1.30;;
92;SDS011;16232;48.800;9.002;2023-07-22T09:06:29;3.90;;;1.10;;
92;SDS011;16232;48.800;9.002;2023-07-22T09:08:58;2.83;;;1.20;;
92;SDS011;16232;48.800;9.002;2023-07-22T09:11:29;1.37;;;1.27;;
92;SDS011;16232;48.800;9.002;2023-07-22T09:13:57;1.60;;;1.20;;
92;SDS011;16232;48.800;9.002;2023-07-22T09:16:25;1.20;;;1.10;;
92;SDS011;16232;48.800;9.002;2023-07-22T09:18:54;3.20;;;1.30;;
92;SDS011;16232;48.800;9.002;2023-07-22T09:21:22;2.53;;;1.63;;
92;SDS011;16232;48.800;9.002;2023-07-22T09:23:49;1.67;;;0.80;;
92;SDS011;16232;48.800;9.002;2023-07-22T09:26:18;1.30;;;1.20;;
92;SDS011;16232;48.800;9.002;2023-07-22T09:28:49;0.90;;;0.70;;
92;SDS011;16232;48.800;9.002;2023-07-22T09:31:17;1.20;;;1.10;;
92;SDS011;16232;48.800;9.002;2023-07-22T09:33:44;1.23;;;1.00;;
92;SDS011;16232;48.800;9.002;2023-07-22T09:36:12;1.10;;;0.90;;
92;SDS011;16232;48.800;9.002;2023-07-22T09:38:39;2.17;;;1.20;;
92;SDS011;16232;48.800;9.002;2023-07-22T09:41:07;1.17;;;1.07;;
92;SDS011;16232;48.800;9.002;2023-07-22T09:43:39;1.30;;;1.10;;
92;SDS011;16232;48.800;9.002;2023-07-22T09:46:07;1.60;;;1.37;;
92;SDS011;16232;48.800;9.002;2023-07-22T09:48:41;1.43;;;1.20;;
92;SDS011;16232;48.800;9.002;2023-07-22T09:51:12;2.47;;;1.20;;
92;SDS011;16232;48.800;9.002;2023-07-22T09:53:46;1.60;;;1.10;;
92;SDS011;16232;48.800;9.002;2023-07-22T09:56:13;1.40;;;1.30;;
92;SDS011;16232;48.800;9.002;2023-07-22T09:58:42;1.23;;;1.00;;
92;SDS011;16232;48.800;9.002;2023-07-22T10:01:12;1.17;;;1.07;;
92;SDS011;16232;48.800;9.002;2023-07-22T10:03:39;1.20;;;1.00;;
92;SDS011;16232;48.800;9.002;2023-07-22T10:06:08;1.60;;;1.50;;
92;SDS011;16232;48.800;9.002;2023-07-22T10:08:36;1.47;;;1.00;;
92;SDS011;16232;48.800;9.002;2023-07-22T10:11:05;3.07;;;1.20;;
92;SDS011;16232;48.800;9.002;2023-07-22T10:13:32;1.37;;;1.27;;
92;SDS011;16232;48.800;9.002;2023-07-22T10:16:01;1.13;;;1.03;;
92;SDS011;16232;48.800;9.002;2023-07-22T10:18:29;1.10;;;1.00;;
92;SDS011;16232;48.800;9.002;2023-07-22T10:20:57;1.60;;;1.50;;
92;SDS011;16232;48.800;9.002;2023-07-22T10:23:25;1.40;;;1.30;;
92;SDS011;16232;48.800;9.002;2023-07-22T10:25:53;1.43;;;1.23;;
92;SDS011;16232;48.800;9.002;2023-07-22T10:28:21;1.70;;;1.20;;
92;SDS011;16232;48.800;9.002;2023-07-22T10:30:49;1.20;;;1.03;;
92;SDS011;16232;48.800;9.002;2023-07-22T10:33:17;1.60;;;1.20;;
92;SDS011;16232;48.800;9.002;2023-07-22T10:38:27;1.30;;;1.10;;
92;SDS011;16232;48.800;9.002;2023-07-22T10:40:55;1.17;;;1.00;;
92;SDS011;16232;48.800;9.002;2023-07-22T10:43:24;1.30;;;1.20;;
92;SDS011;16232;48.800;9.002;2023-07-22T10:45:52;1.10;;;0.98;;
92;SDS011;16232;48.800;9.002;2023-07-22T10:48:24;1.30;;;1.13;;
92;SDS011;16232;48.800;9.002;2023-07-22T10:50:53;1.27;;;1.17;;
92;SDS011;16232;48.800;9.002;2023-07-22T10:53:21;2.38;;;1.35;;
92;SDS011;16232;48.800;9.002;2023-07-22T10:56:04;2.28;;;1.50;;
92;SDS011;16232;48.800;9.002;2023-07-22T10:58:32;1.50;;;1.40;;
92;SDS011;16232;48.800;9.002;2023-07-22T11:01:20;2.10;;;1.53;;
92;SDS011;16232;48.800;9.002;2023-07-22T11:06:38;2.13;;;1.60;;
92;SDS011;16232;48.800;9.002;2023-07-22T11:09:05;1.50;;;1.40;;
92;SDS011;16232;48.800;9.002;2023-07-22T11:11:36;1.87;;;1.60;;
92;SDS011;16232;48.800;9.002;2023-07-22T11:14:14;2.33;;;1.47;;
92;SDS011;16232;48.800;9.002;2023-07-22T11:16:42;2.37;;;1.60;;
92;SDS011;16232;48.800;9.002;2023-07-22T11:19:09;2.90;;;1.30;;
92;SDS011;16232;48.800;9.002;2023-07-22T11:21:38;2.23;;;1.70;;
92;SDS011;16232;48.800;9.002;2023-07-22T11:24:06;1.17;;;1.07;;
92;SDS011;16232;48.800;9.002;2023-07-22T11:26:34;1.93;;;1.60;;
92;SDS011;16232;48.800;9.002;2023-07-22T11:29:02;1.60;;;1.50;;
92;SDS011;16232;48.800;9.002;2023-07-22T11:31:32;2.00;;;1.33;;
92;SDS011;16232;48.800;9.002;2023-07-22T11:34:01;1.50;;;1.40;;
92;SDS011;16232;48.800;9.002;2023-07-22T11:36:29;1.53;;;1.40;;
92;SDS011;16232;48.800;9.002;2023-07-22T11:39:02;1.67;;;1.43;;
92;SDS011;16232;48.800;9.002;2023-07-22T11:41:29;1.53;;;1.30;;
92;SDS011;16232;48.800;9.002;2023-07-22T11:43:57;1.42;;;1.08;;
92;SDS011;16232;48.800;9.002;2023-07-22T11:46:24;2.33;;;1.45;;
92;SDS011;16232;48.800;9.002;2023-07-22T11:48:52;1.83;;;1.38;;
92;SDS011;16232;48.800;9.002;2023-07-22T11:51:20;1.40;;;1.30;;
92;SDS011;16232;48.800;9.002;2023-07-22T11:53:47;1.70;;;1.60;;
92;SDS011;16232;48.800;9.002;2023-07-22T11:56:20;1.42;;;1.33;;
92;SDS011;16232;48.800;9.002;2023-07-22T11:58:48;1.42;;;1.33;;
92;SDS011;16232;48.800;9.002;2023-07-22T12:01:16;2.13;;;1.48;;
92;SDS011;16232;48.800;9.002;2023-07-22T12:03:43;1.42;;;1.33;;
92;SDS011;16232;48.800;9.002;2023-07-22T12:06:11;2.47;;;1.50;;
92;SDS011;16232;48.800;9.002;2023-07-22T12:08:42;4.20;;;1.90;;
92;SDS011;16232;48.800;9.002;2023-07-22T12:11:15;1.70;;;1.60;;
92;SDS011;16232;48.800;9.002;2023-07-22T12:13:44;1.53;;;1.43;;
92;SDS011;16232;48.800;9.002;2023-07-22T12:16:21;3.20;;;1.80;;
92;SDS011;16232;48.800;9.002;2023-07-22T12:18:50;3.10;;;1.70;;
92;SDS011;16232;48.800;9.002;2023-07-22T12:21:17;2.63;;;1.77;;
92;SDS011;16232;48.800;9.002;2023-07-22T12:23:45;2.17;;;1.90;;
92;SDS011;16232;48.800;9.002;2023-07-22T12:26:12;2.37;;;1.73;;
92;SDS011;16232;48.800;9.002;2023-07-22T12:28:41;2.20;;;2.00;;
92;SDS011;16232;48.800;9.002;2023-07-22T12:31:10;1.87;;;1.73;;
92;SDS011;16232;48.800;9.002;2023-07-22T12:33:37;3.37;;;2.10;;
92;SDS011;16232;48.800;9.002;2023-07-22T12:36:04;2.83;;;1.60;;
92;SDS011;16232;48.800;9.002;2023-07-22T12:38:32;2.87;;;1.93;;
92;SDS011;16232;48.800;9.002;2023-07-22T12:40:59;1.90;;;1.77;;
92;SDS011;16232;48.800;9.002;2023-07-22T12:43:27;2.20;;;1.83;;
92;SDS011;16232;48.800;9.002;2023-07-22T12:45:54;2.17;;;1.80;;
92;SDS011;16232;48.800;9.002;2023-07-22T12:48:23;2.53;;;1.90;;
92;SDS011;16232;48.800;9.002;2023-07-22T12:50:51;2.23;;;1.70;;
92;SDS011;16232;48.800;9.002;2023-07-22T12:53:18;2.10;;;1.90;;
92;SDS011;16232;48.800;9.002;2023-07-22T12:55:45;3.47;;;1.90;;
92;SDS011;16232;48.800;9.002;2023-07-22T12:58:13;1.93;;;1.73;;
92;SDS011;16232;48.800;9.002;2023-07-22T13:00:40;2.33;;;2.00;;
92;SDS011;16232;48.800;9.002;2023-07-22T13:03:08;2.77;;;1.90;;
92;SDS011;16232;48.800;9.002;2023-07-22T13:05:37;2.17;;;1.87;;
92;SDS011;16232;48.800;9.002;2023-07-22T13:08:04;2.43;;;1.93;;
92;SDS011;16232;48.800;9.002;2023-07-22T13:10:32;3.20;;;2.00;;
92;SDS011;16232;48.800;9.002;2023-07-22T13:13:02;4.63;;;2.33;;
92;SDS011;16232;48.800;9.002;2023-07-22T13:15:29;3.33;;;2.03;;
92;SDS011;16232;48.800;9.002;2023-07-22T13:17:56;2.33;;;2.00;;
92;SDS011;16232;48.800;9.002;2023-07-22T13:20:24;3.43;;;1.97;;
92;SDS011;16232;48.800;9.002;2023-07-22T13:22:52;3.17;;;1.97;;
92;SDS011;16232;48.800;9.002;2023-07-22T13:25:20;2.40;;;2.20;;
92;SDS011;16232;48.800;9.002;2023-07-22T13:27:47;2.73;;;1.90;;
92;SDS011;16232;48.800;9.002;2023-07-22T13:30:14;1.93;;;1.73;;
92;SDS011;16232;48.800;9.002;2023-07-22T13:32:42;2.70;;;2.17;;
92;SDS011;16232;48.800;9.002;2023-07-22T13:35:09;3.67;;;2.30;;
92;SDS011;16232;48.800;9.002;2023-07-22T13:37:36;2.33;;;2.10;;
92;SDS011;16232;48.800;9.002;2023-07-22T13:40:06;2.10;;;1.90;;
92;SDS011;16232;48.800;9.002;2023-07-22T13:42:35;2.40;;;2.00;;
92;SDS011;16232;48.800;9.002;2023-07-22T13:45:03;3.00;;;2.10;;
92;SDS011;16232;48.800;9.002;2023-07-22T13:47:30;2.10;;;1.90;;
92;SDS011;16232;48.800;9.002;2023-07-22T13:49:58;2.13;;;2.03;;
92;SDS011;16232;48.800;9.002;2023-07-22T13:52:25;2.30;;;2.10;;
92;SDS011;16232;48.800;9.002;2023-07-22T13:54:52;2.10;;;1.90;;
92;SDS011;16232;48.800;9.002;2023-07-22T13:57:21;2.40;;;2.20;;
92;SDS011;16232;48.800;9.002;2023-07-22T13:59:48;3.03;;;1.83;;
92;SDS011;16232;48.800;9.002;2023-07-22T14:02:16;2.00;;;1.80;;
92;SDS011;16232;48.800;9.002;2023-07-22T14:04:43;2.13;;;1.93;;
92;SDS011;16232;48.800;9.002;2023-07-22T14:07:10;7.13;;;1.90;;
92;SDS011;16232;48.800;9.002;2023-07-22T14:09:37;3.30;;;1.90;;
92;SDS011;16232;48.800;9.002;2023-07-22T14:12:05;2.30;;;2.10;;
92;SDS011;16232;48.800;9.002;2023-07-22T14:14:34;2.57;;;2.20;;
92;SDS011;16232;48.800;9.002;2023-07-22T14:17:01;2.60;;;1.97;;
92;SDS011;16232;48.800;9.002;2023-07-22T14:19:29;3.17;;;2.00;;
92;SDS011;16232;48.800;9.002;2023-07-22T14:21:56;2.20;;;2.00;;
92;SDS011;16232;48.800;9.002;2023-07-22T14:24:24;2.90;;;2.00;;
92;SDS011;16232;48.800;9.002;2023-07-22T14:26:51;2.53;;;2.00;;
92;SDS011;16232;48.800;9.002;2023-07-22T14:29:18;2.90;;;2.33;;
92;SDS011;16232;48.800;9.002;2023-07-22T14:31:48;2.83;;;2.40;;
92;SDS011;16232;48.800;9.002;2023-07-22T14:34:15;2.83;;;2.20;;
92;SDS011;16232;48.800;9.002;2023-07-22T14:36:42;3.10;;;2.80;;
92;SDS011;16232;48.800;9.002;2023-07-22T14:39:10;3.93;;;2.40;;
92;SDS011;16232;48.800;9.002;2023-07-22T14:41:37;3.07;;;2.40;;
92;SDS011;16232;48.800;9.002;2023-07-22T14:44:05;3.57;;;2.63;;
92;SDS011;16232;48.800;9.002;2023-07-22T14:46:32;3.00;;;2.63;;
92;SDS011;16232;48.800;9.002;2023-07-22T14:49:01;3.07;;;2.40;;
92;SDS011;16232;48.800;9.002;2023-07-22T14:51:28;3.07;;;2.57;;
92;SDS011;16232;48.800;9.002;2023-07-22T14:53:56;3.70;;;2.97;;
92;SDS011;16232;48.800;9.002;2023-07-22T14:56:23;2.30;;;2.00;;
92;SDS011;16232;48.800;9.002;2023-07-22T14:58:50;2.57;;;2.30;;
92;SDS011;16232;48.800;9.002;2023-07-22T15:01:17;2.37;;;2.10;;
92;SDS011;16232;48.800;9.002;2023-07-22T15:03:45;4.10;;;2.60;;
92;SDS011;16232;48.800;9.002;2023-07-22T15:06:13;3.23;;;2.40;;
92;SDS011;16232;48.800;9.002;2023-07-22T15:08:41;2.67;;;2.47;;
92;SDS011;16232;48.800;9.002;2023-07-22T15:11:08;3.30;;;3.00;;
92;SDS011;16232;48.800;9.002;2023-07-22T15:13:35;4.50;;;4.10;;
92;SDS011;16232;48.800;9.002;2023-07-22T15:16:03;6.17;;;5.23;;
92;SDS011;16232;48.800;9.002;2023-07-22T15:18:30;6.03;;;4.97;;
92;SDS011;16232;48.800;9.002;2023-07-22T15:20:58;4.23;;;3.80;;
92;SDS011;16232;48.800;9.002;2023-07-22T15:23:27;5.30;;;4.30;;
92;SDS011;16232;48.800;9.002;2023-07-22T15:25:55;5.57;;;4.63;;
92;SDS011;16232;48.800;9.002;2023-07-22T15:28:23;4.83;;;3.87;;
92;SDS011;16232;48.800;9.002;2023-07-22T15:30:50;3.70;;;3.30;;
92;SDS011;16232;48.800;9.002;2023-07-22T15:33:18;5.20;;;4.70;;
92;SDS011;16232;48.800;9.002;2023-07-22T15:35:46;4.77;;;3.97;;
92;SDS011;16232;48.800;9.002;2023-07-22T15:38:14;4.97;;;3.67;;
92;SDS011;16232;48.800;9.002;2023-07-22T15:40:42;4.77;;;3.83;;